PWSweather.com
Personal Weather Stations
Station Observations
KKYBOWLI8
Greystone Ii, Bowling Green, KY 42101

Greystone IiBowling Green, KY 42101

Lat: 36.9238, Lon: -86.5206

Elevation: 600

Station Type: Davis Vantage Pro2

www.sokyweather.com

High Low Average
Temperature 84.3°F29.1°C 66.3°F19.1°C 71.5°F21.9°C
Dew Point 75.8°F24.3°C 66.3°F19.1°C 69.9°F21.1°C
Winds 3.9 mph 6.3 kmh Calm Calm Calm ECalm E
Wind Gusts 17.0 mph27.4 kmh -- 2.0 mph3.2 kmh
Humidity 100% 71% 96%
Pressure 29.86 in1011.2 mb 29.78 in1008.5 mb -
Precipitation 1.14 in29.0 mm - -
Hour Temp Dew Point Humidity Winds Wind Gusts Pressure Precip Precip Rate Daily Precip Total
12:00 AM 67.6°F19.8°C 67.6°F19.8°C 100% Calm Calm -- 29.84 in1010.5 mb 0.00 in0.0 mm 0.00 in0.0 mm 0.00 in0.0 mm
12:10 AM 67.6°F19.8°C 67.6°F19.8°C 100% Calm Calm -- 29.83 in1010.2 mb 0.00 in0.0 mm 0.00 in0.0 mm 0.00 in0.0 mm
12:20 AM 67.6°F19.8°C 67.6°F19.8°C 100% Calm Calm -- 29.82 in1009.8 mb 0.00 in0.0 mm 0.00 in0.0 mm 0.00 in0.0 mm
12:30 AM 67.6°F19.8°C 67.6°F19.8°C 100% Calm Calm -- 29.82 in1009.8 mb 0.00 in0.0 mm 0.00 in0.0 mm 0.00 in0.0 mm
12:40 AM 67.6°F19.8°C 67.6°F19.8°C 100% Calm Calm -- 29.82 in1009.8 mb 0.00 in0.0 mm 0.00 in0.0 mm 0.00 in0.0 mm
12:50 AM 67.6°F19.8°C 67.6°F19.8°C 100% Calm Calm -- 29.82 in1009.8 mb 0.00 in0.0 mm 0.00 in0.0 mm 0.00 in0.0 mm
01:00 AM 67.6°F19.8°C 67.6°F19.8°C 100% Calm Calm -- 29.81 in1009.5 mb 0.00 in0.0 mm 0.00 in0.0 mm 0.00 in0.0 mm
01:10 AM 67.6°F19.8°C 67.6°F19.8°C 100% Calm Calm 1.0 mph1.6 kmh 29.81 in1009.5 mb 0.00 in0.0 mm 0.00 in0.0 mm 0.00 in0.0 mm
01:20 AM 67.6°F19.8°C 67.6°F19.8°C 100% Calm Calm -- 29.81 in1009.5 mb 0.00 in0.0 mm 0.00 in0.0 mm 0.00 in0.0 mm
01:30 AM 67.6°F19.8°C 67.6°F19.8°C 100% Calm Calm 1.0 mph1.6 kmh 29.80 in1009.1 mb 0.00 in0.0 mm 0.00 in0.0 mm 0.00 in0.0 mm
01:40 AM 67.6°F19.8°C 67.6°F19.8°C 100% Calm Calm -- 29.80 in1009.1 mb 0.00 in0.0 mm 0.00 in0.0 mm 0.00 in0.0 mm
01:50 AM 67.6°F19.8°C 67.6°F19.8°C 100% Calm Calm -- 29.80 in1009.1 mb 0.00 in0.0 mm 0.00 in0.0 mm 0.00 in0.0 mm
02:00 AM 67.6°F19.8°C 67.6°F19.8°C 100% Calm Calm -- 29.81 in1009.5 mb 0.00 in0.0 mm 0.00 in0.0 mm 0.00 in0.0 mm
02:10 AM 67.4°F19.7°C 67.4°F19.7°C 100% Calm Calm -- 29.81 in1009.5 mb 0.00 in0.0 mm 0.00 in0.0 mm 0.00 in0.0 mm
02:20 AM 67.4°F19.7°C 67.4°F19.7°C 100% Calm Calm -- 29.81 in1009.5 mb 0.00 in0.0 mm 0.00 in0.0 mm 0.00 in0.0 mm
02:30 AM 67.4°F19.7°C 67.4°F19.7°C 100% Calm Calm -- 29.81 in1009.5 mb 0.00 in0.0 mm 0.00 in0.0 mm 0.00 in0.0 mm
02:40 AM 67.4°F19.7°C 67.4°F19.7°C 100% Calm Calm -- 29.82 in1009.8 mb 0.00 in0.0 mm 0.00 in0.0 mm 0.00 in0.0 mm
02:50 AM 67.4°F19.7°C 67.4°F19.7°C 100% Calm Calm -- 29.82 in1009.8 mb 0.00 in0.0 mm 0.00 in0.0 mm 0.00 in0.0 mm
03:00 AM 67.4°F19.7°C 67.4°F19.7°C 100% Calm Calm -- 29.82 in1009.8 mb 0.00 in0.0 mm 0.00 in0.0 mm 0.00 in0.0 mm
03:10 AM 67.4°F19.7°C 67.4°F19.7°C 100% Calm Calm -- 29.82 in1009.8 mb 0.00 in0.0 mm 0.00 in0.0 mm 0.00 in0.0 mm
03:20 AM 67.2°F19.6°C 67.2°F19.6°C 100% Calm Calm -- 29.82 in1009.8 mb 0.00 in0.0 mm 0.00 in0.0 mm 0.00 in0.0 mm
03:30 AM 67.2°F19.6°C 67.2°F19.6°C 100% Calm Calm -- 29.82 in1009.8 mb 0.00 in0.0 mm 0.00 in0.0 mm 0.00 in0.0 mm
03:40 AM 67.2°F19.6°C 67.2°F19.6°C 100% Calm Calm -- 29.82 in1009.8 mb 0.00 in0.0 mm 0.00 in0.0 mm 0.00 in0.0 mm
03:50 AM 67.2°F19.6°C 67.2°F19.6°C 100% Calm Calm -- 29.82 in1009.8 mb 0.00 in0.0 mm 0.00 in0.0 mm 0.00 in0.0 mm
04:00 AM 67.2°F19.6°C 67.2°F19.6°C 100% Calm Calm -- 29.82 in1009.8 mb 0.00 in0.0 mm 0.00 in0.0 mm 0.00 in0.0 mm
04:10 AM 67.2°F19.6°C 67.2°F19.6°C 100% Calm Calm -- 29.83 in1010.2 mb 0.00 in0.0 mm 0.00 in0.0 mm 0.00 in0.0 mm
04:20 AM 67.2°F19.6°C 67.2°F19.6°C 100% Calm Calm -- 29.83 in1010.2 mb 0.00 in0.0 mm 0.00 in0.0 mm 0.00 in0.0 mm
04:30 AM 67.4°F19.7°C 67.4°F19.7°C 100% Calm Calm -- 29.83 in1010.2 mb 0.00 in0.0 mm 0.00 in0.0 mm 0.00 in0.0 mm
04:40 AM 67.4°F19.7°C 67.4°F19.7°C 100% Calm Calm -- 29.83 in1010.2 mb 0.00 in0.0 mm 0.00 in0.0 mm 0.00 in0.0 mm
04:50 AM 67.4°F19.7°C 67.4°F19.7°C 100% Calm Calm -- 29.84 in1010.5 mb 0.00 in0.0 mm 0.00 in0.0 mm 0.00 in0.0 mm
05:00 AM 67.4°F19.7°C 67.4°F19.7°C 100% Calm Calm -- 29.84 in1010.5 mb 0.00 in0.0 mm 0.00 in0.0 mm 0.00 in0.0 mm
05:10 AM 67.4°F19.7°C 67.4°F19.7°C 100% Calm Calm -- 29.84 in1010.5 mb 0.00 in0.0 mm 0.00 in0.0 mm 0.00 in0.0 mm
05:20 AM 67.6°F19.8°C 67.6°F19.8°C 100% Calm Calm -- 29.84 in1010.5 mb 0.01 in0.3 mm 0.06 in1.5 mm 0.01 in0.3 mm
05:30 AM 67.7°F19.8°C 67.7°F19.8°C 100% Calm Calm -- 29.84 in1010.5 mb 0.01 in0.3 mm 0.00 in0.0 mm 0.01 in0.3 mm
05:40 AM 67.9°F19.9°C 67.9°F19.9°C 100% Calm Calm 1.0 mph1.6 kmh 29.85 in1010.8 mb 0.01 in0.3 mm 0.00 in0.0 mm 0.01 in0.3 mm
05:50 AM 68.1°F20.1°C 68.1°F20.1°C 100% Calm Calm -- 29.85 in1010.8 mb 0.02 in0.5 mm 0.06 in1.5 mm 0.02 in0.5 mm
06:00 AM 68.2°F20.1°C 68.2°F20.1°C 100% Calm Calm 1.0 mph1.6 kmh 29.84 in1010.5 mb 0.07 in1.8 mm 0.06 in1.5 mm 0.07 in1.8 mm
06:10 AM 68.2°F20.1°C 68.2°F20.1°C 100% Calm Calm 1.0 mph1.6 kmh 29.85 in1010.8 mb 0.07 in1.8 mm 0.00 in0.0 mm 0.07 in1.8 mm
06:20 AM 68.6°F20.3°C 68.6°F20.3°C 100% Calm Calm -- 29.85 in1010.8 mb 0.06 in1.5 mm 0.00 in0.0 mm 0.07 in1.8 mm
06:30 AM 68.7°F20.4°C 68.7°F20.4°C 100% Calm Calm 1.0 mph1.6 kmh 29.85 in1010.8 mb 0.06 in1.5 mm 0.00 in0.0 mm 0.07 in1.8 mm
06:40 AM 68.7°F20.4°C 68.7°F20.4°C 100% Calm Calm 1.0 mph1.6 kmh 29.85 in1010.8 mb 0.06 in1.5 mm 0.00 in0.0 mm 0.07 in1.8 mm
06:50 AM 68.9°F20.5°C 68.9°F20.5°C 100% Calm Calm 3.0 mph4.8 kmh 29.85 in1010.8 mb 0.08 in2.0 mm 0.12 in3.0 mm 0.10 in2.5 mm
07:00 AM 69.1°F20.6°C 69.1°F20.6°C 100% Calm Calm 1.0 mph1.6 kmh 29.85 in1010.8 mb 0.04 in1.0 mm 0.00 in0.0 mm 0.11 in2.8 mm
07:10 AM 69.2°F20.7°C 69.2°F20.7°C 100% Calm Calm 1.0 mph1.6 kmh 29.84 in1010.5 mb 0.04 in1.0 mm 0.00 in0.0 mm 0.11 in2.8 mm
07:20 AM 69.9°F21.1°C 69.9°F21.1°C 100% Calm Calm 2.0 mph3.2 kmh 29.85 in1010.8 mb 0.04 in1.0 mm 0.00 in0.0 mm 0.11 in2.8 mm
07:30 AM 69.9°F21.1°C 69.9°F21.1°C 100% Calm Calm 3.0 mph4.8 kmh 29.85 in1010.8 mb 0.04 in1.0 mm 0.00 in0.0 mm 0.11 in2.8 mm
07:40 AM 70.4°F21.3°C 70.4°F21.3°C 100% Calm Calm 3.0 mph4.8 kmh 29.85 in1010.8 mb 0.04 in1.0 mm 0.00 in0.0 mm 0.11 in2.8 mm
07:50 AM 71.6°F22.0°C 71.6°F22.0°C 100% 0.8 mph ENE1.3 kmh ENE 5.0 mph8.0 kmh 29.85 in1010.8 mb 0.01 in0.3 mm 0.00 in0.0 mm 0.11 in2.8 mm
08:00 AM 71.9°F22.2°C 71.9°F22.2°C 100% 0.2 mph ENE0.3 kmh ENE 2.0 mph3.2 kmh 29.85 in1010.8 mb 0.00 in0.0 mm 0.00 in0.0 mm 0.11 in2.8 mm
08:10 AM 72.1°F22.3°C 72.1°F22.3°C 100% Calm Calm 3.0 mph4.8 kmh 29.85 in1010.8 mb 0.00 in0.0 mm 0.00 in0.0 mm 0.11 in2.8 mm
08:20 AM 71.9°F22.2°C 71.9°F22.2°C 100% 0.4 mph SSE0.6 kmh SSE 4.0 mph6.4 kmh 29.86 in1011.2 mb 0.00 in0.0 mm 0.00 in0.0 mm 0.11 in2.8 mm
08:30 AM 73.3°F22.9°C 73.3°F22.9°C 100% 0.5 mph S0.8 kmh S 1.0 mph1.6 kmh 29.86 in1011.2 mb 0.00 in0.0 mm 0.00 in0.0 mm 0.11 in2.8 mm
08:40 AM 74.0°F23.3°C 74.0°F23.3°C 100% Calm Calm 5.0 mph8.0 kmh 29.86 in1011.2 mb 0.00 in0.0 mm 0.00 in0.0 mm 0.11 in2.8 mm
08:50 AM 75.0°F23.9°C 75.0°F23.9°C 100% 1.0 mph SSE1.6 kmh SSE 4.0 mph6.4 kmh 29.86 in1011.2 mb 0.00 in0.0 mm 0.00 in0.0 mm 0.11 in2.8 mm
09:00 AM 75.4°F24.1°C 74.5°F23.6°C 97% 0.9 mph S1.4 kmh S 5.0 mph8.0 kmh 29.86 in1011.2 mb 0.00 in0.0 mm 0.00 in0.0 mm 0.11 in2.8 mm
09:10 AM 75.4°F24.1°C 73.9°F23.3°C 95% 1.3 mph S2.1 kmh S 6.0 mph9.7 kmh 29.86 in1011.2 mb 0.00 in0.0 mm 0.00 in0.0 mm 0.11 in2.8 mm
09:20 AM 76.1°F24.5°C 74.6°F23.7°C 95% 0.5 mph S0.8 kmh S 4.0 mph6.4 kmh 29.86 in1011.2 mb 0.00 in0.0 mm 0.00 in0.0 mm 0.11 in2.8 mm
09:30 AM 75.9°F24.4°C 74.0°F23.3°C 94% 1.0 mph S1.6 kmh S 5.0 mph8.0 kmh 29.86 in1011.2 mb 0.00 in0.0 mm 0.00 in0.0 mm 0.11 in2.8 mm
09:40 AM 76.8°F24.9°C 74.6°F23.7°C 93% 0.4 mph S0.6 kmh S 3.0 mph4.8 kmh 29.86 in1011.2 mb 0.00 in0.0 mm 0.00 in0.0 mm 0.11 in2.8 mm
09:50 AM 78.0°F25.6°C 74.8°F23.8°C 90% Calm Calm 2.0 mph3.2 kmh 29.86 in1011.2 mb 0.00 in0.0 mm 0.00 in0.0 mm 0.11 in2.8 mm
10:00 AM 78.8°F26.0°C 74.9°F23.8°C 88% Calm Calm 2.0 mph3.2 kmh 29.86 in1011.2 mb 0.00 in0.0 mm 0.00 in0.0 mm 0.11 in2.8 mm
10:10 AM 78.6°F25.9°C 75.1°F23.9°C 89% Calm Calm 4.0 mph6.4 kmh 29.86 in1011.2 mb 0.00 in0.0 mm 0.00 in0.0 mm 0.11 in2.8 mm
10:20 AM 79.1°F26.2°C 74.9°F23.8°C 87% Calm Calm 5.0 mph8.0 kmh 29.86 in1011.2 mb 0.00 in0.0 mm 0.00 in0.0 mm 0.11 in2.8 mm
10:30 AM 79.7°F26.5°C 74.8°F23.8°C 85% 0.6 mph S1.0 kmh S 5.0 mph8.0 kmh 29.85 in1010.8 mb 0.00 in0.0 mm 0.00 in0.0 mm 0.11 in2.8 mm
10:40 AM 79.5°F26.4°C 74.2°F23.4°C 84% 0.5 mph SSE0.8 kmh SSE 4.0 mph6.4 kmh 29.85 in1010.8 mb 0.00 in0.0 mm 0.00 in0.0 mm 0.11 in2.8 mm
10:50 AM 79.5°F26.4°C 74.2°F23.4°C 84% 0.9 mph W1.4 kmh W 5.0 mph8.0 kmh 29.85 in1010.8 mb 0.00 in0.0 mm 0.00 in0.0 mm 0.11 in2.8 mm
11:00 AM 79.3°F26.3°C 74.4°F23.6°C 85% 1.2 mph S1.9 kmh S 6.0 mph9.7 kmh 29.85 in1010.8 mb 0.00 in0.0 mm 0.00 in0.0 mm 0.11 in2.8 mm
11:10 AM 79.9°F26.6°C 74.3°F23.5°C 83% 1.2 mph S1.9 kmh S 7.0 mph11.3 kmh 29.84 in1010.5 mb 0.00 in0.0 mm 0.00 in0.0 mm 0.11 in2.8 mm
11:20 AM 80.4°F26.9°C 75.8°F24.3°C 86% 1.0 mph SSE1.6 kmh SSE 4.0 mph6.4 kmh 29.84 in1010.5 mb 0.00 in0.0 mm 0.00 in0.0 mm 0.11 in2.8 mm
11:30 AM 81.0°F27.2°C 74.6°F23.7°C 81% 0.2 mph SSW0.3 kmh SSW 5.0 mph8.0 kmh 29.84 in1010.5 mb 0.00 in0.0 mm 0.00 in0.0 mm 0.11 in2.8 mm
11:40 AM 80.8°F27.1°C 74.0°F23.3°C 80% 0.3 mph S0.5 kmh S 8.0 mph12.9 kmh 29.83 in1010.2 mb 0.00 in0.0 mm 0.00 in0.0 mm 0.11 in2.8 mm
11:50 AM 81.7°F27.6°C 74.5°F23.6°C 79% 0.9 mph S1.4 kmh S 5.0 mph8.0 kmh 29.83 in1010.2 mb 0.00 in0.0 mm 0.00 in0.0 mm 0.11 in2.8 mm
12:00 PM 82.1°F27.8°C 74.6°F23.7°C 78% 1.0 mph SSW1.6 kmh SSW 6.0 mph9.7 kmh 29.82 in1009.8 mb 0.00 in0.0 mm 0.00 in0.0 mm 0.11 in2.8 mm
12:10 PM 82.5°F28.1°C 75.7°F24.3°C 80% 1.0 mph WSW1.6 kmh WSW 6.0 mph9.7 kmh 29.82 in1009.8 mb 0.00 in0.0 mm 0.00 in0.0 mm 0.11 in2.8 mm
12:20 PM 83.5°F28.6°C 75.1°F23.9°C 76% Calm Calm 3.0 mph4.8 kmh 29.82 in1009.8 mb 0.00 in0.0 mm 0.00 in0.0 mm 0.11 in2.8 mm
12:30 PM 83.9°F28.8°C 74.3°F23.5°C 73% 0.4 mph S0.6 kmh S 4.0 mph6.4 kmh 29.81 in1009.5 mb 0.00 in0.0 mm 0.00 in0.0 mm 0.11 in2.8 mm
12:40 PM 82.7°F28.2°C 74.0°F23.3°C 75% 1.6 mph S2.6 kmh S 8.0 mph12.9 kmh 29.81 in1009.5 mb 0.00 in0.0 mm 0.00 in0.0 mm 0.11 in2.8 mm
12:50 PM 82.5°F28.1°C 74.2°F23.4°C 76% 1.1 mph S1.8 kmh S 3.0 mph4.8 kmh 29.80 in1009.1 mb 0.00 in0.0 mm 0.00 in0.0 mm 0.11 in2.8 mm
01:00 PM 82.7°F28.2°C 75.1°F23.9°C 78% Calm Calm 3.0 mph4.8 kmh 29.80 in1009.1 mb 0.00 in0.0 mm 0.00 in0.0 mm 0.11 in2.8 mm
01:10 PM 83.1°F28.4°C 74.7°F23.7°C 76% Calm Calm 3.0 mph4.8 kmh 29.80 in1009.1 mb 0.00 in0.0 mm 0.00 in0.0 mm 0.11 in2.8 mm
01:20 PM 82.3°F27.9°C 74.4°F23.6°C 77% 0.4 mph SW0.6 kmh SW 5.0 mph8.0 kmh 29.80 in1009.1 mb 0.00 in0.0 mm 0.00 in0.0 mm 0.11 in2.8 mm
01:30 PM 82.3°F27.9°C 74.4°F23.6°C 77% 0.3 mph S0.5 kmh S 5.0 mph8.0 kmh 29.80 in1009.1 mb 0.00 in0.0 mm 0.00 in0.0 mm 0.11 in2.8 mm
01:40 PM 83.1°F28.4°C 73.9°F23.3°C 74% 0.7 mph SSE1.1 kmh SSE 6.0 mph9.7 kmh 29.79 in1008.8 mb 0.00 in0.0 mm 0.00 in0.0 mm 0.11 in2.8 mm
01:50 PM 84.3°F29.1°C 73.9°F23.3°C 71% 0.2 mph S0.3 kmh S 8.0 mph12.9 kmh 29.79 in1008.8 mb 0.00 in0.0 mm 0.00 in0.0 mm 0.11 in2.8 mm
02:00 PM 83.7°F28.7°C 73.7°F23.2°C 72% 1.3 mph SSW2.1 kmh SSW 5.0 mph8.0 kmh 29.79 in1008.8 mb 0.00 in0.0 mm 0.00 in0.0 mm 0.11 in2.8 mm
02:10 PM 83.1°F28.4°C 73.9°F23.3°C 74% 1.0 mph S1.6 kmh S 4.0 mph6.4 kmh 29.78 in1008.5 mb 0.00 in0.0 mm 0.00 in0.0 mm 0.11 in2.8 mm
02:20 PM 82.5°F28.1°C 73.8°F23.2°C 75% 0.2 mph S0.3 kmh S 6.0 mph9.7 kmh 29.78 in1008.5 mb 0.00 in0.0 mm 0.00 in0.0 mm 0.11 in2.8 mm
02:30 PM 81.7°F27.6°C 74.2°F23.4°C 78% 1.0 mph S1.6 kmh S 7.0 mph11.3 kmh 29.78 in1008.5 mb 0.00 in0.0 mm 0.00 in0.0 mm 0.11 in2.8 mm
02:40 PM 78.0°F25.6°C 71.3°F21.8°C 80% 1.1 mph WSW1.8 kmh WSW 9.0 mph14.5 kmh 29.79 in1008.8 mb 0.00 in0.0 mm 0.00 in0.0 mm 0.11 in2.8 mm
03:00 PM 70.4°F21.3°C 70.4°F21.3°C 100% 3.9 mph S6.3 kmh S 12.0 mph19.3 kmh 29.83 in1010.2 mb 0.56 in14.2 mm 0.84 in21.3 mm 0.67 in17.0 mm
03:10 PM 69.1°F20.6°C 69.1°F20.6°C 100% 1.6 mph WNW2.6 kmh WNW 3.0 mph4.8 kmh 29.81 in1009.5 mb 0.79 in20.1 mm 1.38 in35.1 mm 0.90 in22.9 mm
03:20 PM 68.7°F20.4°C 68.7°F20.4°C 100% Calm Calm -- 29.80 in1009.1 mb 0.85 in21.6 mm 0.36 in9.1 mm 0.96 in24.4 mm
03:30 PM 68.9°F20.5°C 68.9°F20.5°C 100% Calm Calm 3.0 mph4.8 kmh 29.80 in1009.1 mb 0.85 in21.6 mm 0.00 in0.0 mm 0.96 in24.4 mm
03:40 PM 69.4°F20.8°C 69.4°F20.8°C 100% Calm Calm 3.0 mph4.8 kmh 29.79 in1008.8 mb 0.85 in21.6 mm 0.00 in0.0 mm 0.96 in24.4 mm
03:50 PM 70.1°F21.2°C 70.1°F21.2°C 100% Calm Calm -- 29.79 in1008.8 mb 0.77 in19.6 mm 0.00 in0.0 mm 0.96 in24.4 mm
04:00 PM 71.1°F21.7°C 71.1°F21.7°C 100% Calm Calm 1.0 mph1.6 kmh 29.80 in1009.1 mb 0.29 in7.4 mm 0.00 in0.0 mm 0.96 in24.4 mm
04:10 PM 70.7°F21.5°C 70.7°F21.5°C 100% Calm Calm -- 29.80 in1009.1 mb 0.06 in1.5 mm 0.00 in0.0 mm 0.96 in24.4 mm
04:20 PM 70.6°F21.4°C 70.6°F21.4°C 100% Calm Calm -- 29.80 in1009.1 mb 0.01 in0.3 mm 0.00 in0.0 mm 0.97 in24.6 mm
04:30 PM 70.6°F21.4°C 70.6°F21.4°C 100% Calm Calm -- 29.80 in1009.1 mb 0.01 in0.3 mm 0.00 in0.0 mm 0.97 in24.6 mm
04:40 PM 70.9°F21.6°C 70.9°F21.6°C 100% Calm Calm 2.0 mph3.2 kmh 29.80 in1009.1 mb 0.01 in0.3 mm 0.00 in0.0 mm 0.97 in24.6 mm
04:50 PM 71.2°F21.8°C 71.2°F21.8°C 100% Calm Calm 2.0 mph3.2 kmh 29.80 in1009.1 mb 0.01 in0.3 mm 0.00 in0.0 mm 0.97 in24.6 mm
05:00 PM 71.1°F21.7°C 71.1°F21.7°C 100% 0.3 mph NE0.5 kmh NE 7.0 mph11.3 kmh 29.80 in1009.1 mb 0.01 in0.3 mm 0.00 in0.0 mm 0.97 in24.6 mm
05:10 PM 70.9°F21.6°C 70.9°F21.6°C 100% 1.8 mph NE2.9 kmh NE 5.0 mph8.0 kmh 29.80 in1009.1 mb 0.01 in0.3 mm 0.00 in0.0 mm 0.97 in24.6 mm
05:20 PM 70.9°F21.6°C 70.9°F21.6°C 100% 0.4 mph NE0.6 kmh NE 2.0 mph3.2 kmh 29.80 in1009.1 mb 0.00 in0.0 mm 0.00 in0.0 mm 0.97 in24.6 mm
05:30 PM 70.9°F21.6°C 70.9°F21.6°C 100% Calm Calm 1.0 mph1.6 kmh 29.80 in1009.1 mb 0.00 in0.0 mm 0.00 in0.0 mm 0.97 in24.6 mm
05:40 PM 70.9°F21.6°C 70.9°F21.6°C 100% Calm Calm -- 29.79 in1008.8 mb 0.00 in0.0 mm 0.00 in0.0 mm 0.97 in24.6 mm
05:50 PM 70.7°F21.5°C 70.7°F21.5°C 100% Calm Calm -- 29.79 in1008.8 mb 0.00 in0.0 mm 0.00 in0.0 mm 0.97 in24.6 mm
06:00 PM 70.7°F21.5°C 70.7°F21.5°C 100% Calm Calm -- 29.79 in1008.8 mb 0.00 in0.0 mm 0.00 in0.0 mm 0.97 in24.6 mm
06:10 PM 70.7°F21.5°C 70.7°F21.5°C 100% Calm Calm -- 29.80 in1009.1 mb 0.00 in0.0 mm 0.00 in0.0 mm 0.97 in24.6 mm
06:20 PM 70.4°F21.3°C 70.4°F21.3°C 100% Calm Calm -- 29.80 in1009.1 mb 0.00 in0.0 mm 0.00 in0.0 mm 0.97 in24.6 mm
06:30 PM 70.2°F21.2°C 70.2°F21.2°C 100% Calm Calm -- 29.80 in1009.1 mb 0.00 in0.0 mm 0.00 in0.0 mm 0.97 in24.6 mm
06:40 PM 69.9°F21.1°C 69.9°F21.1°C 100% Calm Calm 2.0 mph3.2 kmh 29.80 in1009.1 mb 0.00 in0.0 mm 0.00 in0.0 mm 0.97 in24.6 mm
06:50 PM 69.4°F20.8°C 69.4°F20.8°C 100% Calm Calm -- 29.81 in1009.5 mb 0.00 in0.0 mm 0.00 in0.0 mm 0.97 in24.6 mm
07:00 PM 69.4°F20.8°C 69.4°F20.8°C 100% Calm Calm -- 29.83 in1010.2 mb 0.00 in0.0 mm 0.00 in0.0 mm 0.97 in24.6 mm
07:10 PM 69.2°F20.7°C 69.2°F20.7°C 100% Calm Calm 1.0 mph1.6 kmh 29.83 in1010.2 mb 0.00 in0.0 mm 0.00 in0.0 mm 0.97 in24.6 mm
07:20 PM 69.2°F20.7°C 69.2°F20.7°C 100% Calm Calm 1.0 mph1.6 kmh 29.83 in1010.2 mb 0.00 in0.0 mm 0.00 in0.0 mm 0.97 in24.6 mm
07:30 PM 69.2°F20.7°C 69.2°F20.7°C 100% Calm Calm -- 29.83 in1010.2 mb 0.00 in0.0 mm 0.00 in0.0 mm 0.97 in24.6 mm
07:40 PM 69.2°F20.7°C 69.2°F20.7°C 100% Calm Calm -- 29.85 in1010.8 mb 0.00 in0.0 mm 0.00 in0.0 mm 0.97 in24.6 mm
07:50 PM 67.4°F19.7°C 67.4°F19.7°C 100% 0.9 mph S1.4 kmh S 17.0 mph27.4 kmh 29.85 in1010.8 mb 0.01 in0.3 mm 0.06 in1.5 mm 0.98 in24.9 mm
08:00 PM 66.6°F19.2°C 66.6°F19.2°C 100% 1.4 mph S2.3 kmh S 7.0 mph11.3 kmh 29.85 in1010.8 mb 0.06 in1.5 mm 0.06 in1.5 mm 1.03 in26.2 mm
08:10 PM 66.4°F19.1°C 66.4°F19.1°C 100% 0.4 mph S0.6 kmh S 2.0 mph3.2 kmh 29.84 in1010.5 mb 0.08 in2.0 mm 0.12 in3.0 mm 1.05 in26.7 mm
08:20 PM 66.4°F19.1°C 66.4°F19.1°C 100% Calm Calm 1.0 mph1.6 kmh 29.84 in1010.5 mb 0.09 in2.3 mm 0.06 in1.5 mm 1.06 in26.9 mm
08:30 PM 66.4°F19.1°C 66.4°F19.1°C 100% Calm Calm -- 29.85 in1010.8 mb 0.11 in2.8 mm 0.12 in3.0 mm 1.08 in27.4 mm
08:40 PM 66.6°F19.2°C 66.6°F19.2°C 100% Calm Calm -- 29.86 in1011.2 mb 0.12 in3.0 mm 0.06 in1.5 mm 1.09 in27.7 mm
08:50 PM 66.6°F19.2°C 66.6°F19.2°C 100% Calm Calm -- 29.86 in1011.2 mb 0.13 in3.3 mm 0.06 in1.5 mm 1.11 in28.2 mm
09:00 PM 66.6°F19.2°C 66.6°F19.2°C 100% Calm Calm -- 29.86 in1011.2 mb 0.10 in2.5 mm 0.00 in0.0 mm 1.13 in28.7 mm
09:10 PM 66.6°F19.2°C 66.6°F19.2°C 100% Calm Calm -- 29.86 in1011.2 mb 0.08 in2.0 mm 0.00 in0.0 mm 1.13 in28.7 mm
09:20 PM 66.6°F19.2°C 66.6°F19.2°C 100% Calm Calm -- 29.86 in1011.2 mb 0.08 in2.0 mm 0.00 in0.0 mm 1.14 in29.0 mm
09:30 PM 66.6°F19.2°C 66.6°F19.2°C 100% Calm Calm 1.0 mph1.6 kmh 29.85 in1010.8 mb 0.06 in1.5 mm 0.00 in0.0 mm 1.14 in29.0 mm
09:40 PM 66.6°F19.2°C 66.6°F19.2°C 100% Calm Calm -- 29.85 in1010.8 mb 0.05 in1.3 mm 0.00 in0.0 mm 1.14 in29.0 mm
09:50 PM 66.6°F19.2°C 66.6°F19.2°C 100% Calm Calm -- 29.85 in1010.8 mb 0.03 in0.8 mm 0.00 in0.0 mm 1.14 in29.0 mm
10:00 PM 66.6°F19.2°C 66.6°F19.2°C 100% Calm Calm -- 29.85 in1010.8 mb 0.01 in0.3 mm 0.00 in0.0 mm 1.14 in29.0 mm
10:10 PM 66.6°F19.2°C 66.6°F19.2°C 100% Calm Calm 3.0 mph4.8 kmh 29.84 in1010.5 mb 0.01 in0.3 mm 0.00 in0.0 mm 1.14 in29.0 mm
10:20 PM 66.6°F19.2°C 66.6°F19.2°C 100% Calm Calm 3.0 mph4.8 kmh 29.84 in1010.5 mb 0.00 in0.0 mm 0.00 in0.0 mm 1.14 in29.0 mm
10:30 PM 66.6°F19.2°C 66.6°F19.2°C 100% Calm Calm 4.0 mph6.4 kmh 29.83 in1010.2 mb 0.00 in0.0 mm 0.00 in0.0 mm 1.14 in29.0 mm
10:40 PM 66.7°F19.3°C 66.7°F19.3°C 100% 0.6 mph SSE1.0 kmh SSE 6.0 mph9.7 kmh 29.83 in1010.2 mb 0.00 in0.0 mm 0.00 in0.0 mm 1.14 in29.0 mm
10:50 PM 66.7°F19.3°C 66.7°F19.3°C 100% 1.0 mph SSE1.6 kmh SSE 7.0 mph11.3 kmh 29.83 in1010.2 mb 0.00 in0.0 mm 0.00 in0.0 mm 1.14 in29.0 mm
11:00 PM 66.7°F19.3°C 66.7°F19.3°C 100% 0.5 mph S0.8 kmh S 2.0 mph3.2 kmh 29.83 in1010.2 mb 0.00 in0.0 mm 0.00 in0.0 mm 1.07 in27.2 mm
11:10 PM 66.7°F19.3°C 66.7°F19.3°C 100% Calm Calm -- 29.84 in1010.5 mb 0.00 in0.0 mm 0.00 in0.0 mm 1.07 in27.2 mm
11:20 PM 66.7°F19.3°C 66.7°F19.3°C 100% Calm Calm -- 29.84 in1010.5 mb 0.00 in0.0 mm 0.00 in0.0 mm 1.07 in27.2 mm
11:30 PM 66.6°F19.2°C 66.6°F19.2°C 100% Calm Calm -- 29.84 in1010.5 mb 0.00 in0.0 mm 0.00 in0.0 mm 1.07 in27.2 mm
11:40 PM 66.4°F19.1°C 66.4°F19.1°C 100% Calm Calm -- 29.84 in1010.5 mb 0.00 in0.0 mm 0.00 in0.0 mm 1.07 in27.2 mm
11:50 PM 66.3°F19.1°C 66.3°F19.1°C 100% Calm Calm 1.0 mph1.6 kmh 29.84 in1010.5 mb 0.00 in0.0 mm 0.00 in0.0 mm 1.07 in27.2 mm